sensor_id;sensor_type;location;lat;lon;timestamp;pressure;altitude;pressure_sealevel;temperature;humidity
10176;BME280;18221;38.704;0.152;2023-04-02T00:02:58;98919.16;;;17.06;37.63
10176;BME280;18221;38.704;0.152;2023-04-02T00:05:41;98946.63;;;17.08;37.63
10176;BME280;18221;38.704;0.152;2023-04-02T00:08:36;98921.78;;;17.14;37.44
10176;BME280;18221;38.704;0.152;2023-04-02T00:11:08;98929.31;;;16.96;37.68
10176;BME280;18221;38.704;0.152;2023-04-02T00:13:43;98901.38;;;17.05;37.48
10176;BME280;18221;38.704;0.152;2023-04-02T00:16:23;98902.72;;;16.72;38.15
10176;BME280;18221;38.704;0.152;2023-04-02T00:19:03;98903.91;;;16.70;38.84
10176;BME280;18221;38.704;0.152;2023-04-02T00:21:36;98897.44;;;16.64;38.06
10176;BME280;18221;38.704;0.152;2023-04-02T00:24:14;98903.06;;;16.69;38.84
10176;BME280;18221;38.704;0.152;2023-04-02T00:26:46;98886.16;;;16.46;39.14
10176;BME280;18221;38.704;0.152;2023-04-02T00:29:17;98905.31;;;16.65;38.91
10176;BME280;18221;38.704;0.152;2023-04-02T00:31:52;98900.44;;;16.84;38.81
10176;BME280;18221;38.704;0.152;2023-04-02T00:34:27;98900.81;;;16.95;38.42
10176;BME280;18221;38.704;0.152;2023-04-02T00:36:59;98904.03;;;16.76;38.51
10176;BME280;18221;38.704;0.152;2023-04-02T00:39:33;98887.06;;;16.61;38.66
10176;BME280;18221;38.704;0.152;2023-04-02T00:42:11;98877.25;;;16.91;38.49
10176;BME280;18221;38.704;0.152;2023-04-02T00:44:43;98871.69;;;16.92;38.12
10176;BME280;18221;38.704;0.152;2023-04-02T00:47:19;98868.63;;;16.95;37.52
10176;BME280;18221;38.704;0.152;2023-04-02T00:49:58;98865.69;;;17.05;36.96
10176;BME280;18221;38.704;0.152;2023-04-02T00:52:31;98843.56;;;16.88;36.95
10176;BME280;18221;38.704;0.152;2023-04-02T00:55:07;98843.50;;;16.96;36.60
10176;BME280;18221;38.704;0.152;2023-04-02T00:57:43;98846.34;;;16.95;36.08
10176;BME280;18221;38.704;0.152;2023-04-02T01:00:21;98866.44;;;16.99;35.82
10176;BME280;18221;38.704;0.152;2023-04-02T01:03:30;98847.19;;;16.81;35.54
10176;BME280;18221;38.704;0.152;2023-04-02T01:06:08;98854.31;;;16.88;35.88
10176;BME280;18221;38.704;0.152;2023-04-02T01:09:00;98832.56;;;16.83;36.18
10176;BME280;18221;38.704;0.152;2023-04-02T01:14:53;98846.84;;;16.61;35.67
10176;BME280;18221;38.704;0.152;2023-04-02T01:17:43;98835.75;;;16.64;35.91
10176;BME280;18221;38.704;0.152;2023-04-02T01:20:57;98841.78;;;16.66;35.83
10176;BME280;18221;38.704;0.152;2023-04-02T01:23:37;98846.84;;;16.61;35.57
10176;BME280;18221;38.704;0.152;2023-04-02T01:26:21;98834.47;;;16.60;35.77
10176;BME280;18221;38.704;0.152;2023-04-02T01:29:04;98831.31;;;16.56;35.44
10176;BME280;18221;38.704;0.152;2023-04-02T01:31:35;98820.16;;;16.67;35.16
10176;BME280;18221;38.704;0.152;2023-04-02T01:34:10;98836.72;;;16.71;35.78
10176;BME280;18221;38.704;0.152;2023-04-02T01:39:52;98857.81;;;16.51;35.77
10176;BME280;18221;38.704;0.152;2023-04-02T01:42:30;98851.78;;;16.49;35.85
10176;BME280;18221;38.704;0.152;2023-04-02T01:45:08;98817.94;;;16.34;35.89
10176;BME280;18221;38.704;0.152;2023-04-02T01:47:39;98830.50;;;16.48;35.43
10176;BME280;18221;38.704;0.152;2023-04-02T01:50:27;98824.47;;;16.31;35.59
10176;BME280;18221;38.704;0.152;2023-04-02T01:53:01;98833.81;;;16.35;35.78
10176;BME280;18221;38.704;0.152;2023-04-02T01:55:38;98827.31;;;16.30;35.61
10176;BME280;18221;38.704;0.152;2023-04-02T01:58:10;98831.06;;;16.43;35.39
10176;BME280;18221;38.704;0.152;2023-04-02T02:00:48;98844.13;;;16.46;34.84
10176;BME280;18221;38.704;0.152;2023-04-02T02:03:19;98835.88;;;16.48;34.59
10176;BME280;18221;38.704;0.152;2023-04-02T02:05:49;98841.63;;;16.45;34.44
10176;BME280;18221;38.704;0.152;2023-04-02T02:08:32;98867.59;;;16.44;34.31
10176;BME280;18221;38.704;0.152;2023-04-02T02:11:03;98857.41;;;16.40;34.72
10176;BME280;18221;38.704;0.152;2023-04-02T02:13:33;98872.22;;;16.73;33.70
10176;BME280;18221;38.704;0.152;2023-04-02T02:16:08;98871.66;;;16.78;33.37
10176;BME280;18221;38.704;0.152;2023-04-02T02:18:41;98862.28;;;16.59;33.22
10176;BME280;18221;38.704;0.152;2023-04-02T02:21:16;98866.56;;;16.68;33.65
10176;BME280;18221;38.704;0.152;2023-04-02T02:23:48;98875.75;;;16.74;32.81
10176;BME280;18221;38.704;0.152;2023-04-02T02:26:18;98872.66;;;16.77;32.41
10176;BME280;18221;38.704;0.152;2023-04-02T02:28:55;98877.03;;;16.92;32.02
10176;BME280;18221;38.704;0.152;2023-04-02T02:31:30;98865.81;;;16.74;31.96
10176;BME280;18221;38.704;0.152;2023-04-02T02:34:05;98861.00;;;16.55;30.80
10176;BME280;18221;38.704;0.152;2023-04-02T02:36:46;98858.34;;;16.47;28.46
10176;BME280;18221;38.704;0.152;2023-04-02T02:39:23;98852.34;;;16.45;27.21
10176;BME280;18221;38.704;0.152;2023-04-02T02:42:01;98851.31;;;16.46;26.92
10176;BME280;18221;38.704;0.152;2023-04-02T02:44:35;98837.34;;;16.50;26.50
10176;BME280;18221;38.704;0.152;2023-04-02T02:47:13;98837.50;;;16.57;26.41
10176;BME280;18221;38.704;0.152;2023-04-02T02:49:45;98840.00;;;16.36;26.22
10176;BME280;18221;38.704;0.152;2023-04-02T02:52:19;98834.72;;;16.28;25.67
10176;BME280;18221;38.704;0.152;2023-04-02T02:54:52;98815.19;;;16.42;26.24
10176;BME280;18221;38.704;0.152;2023-04-02T02:57:27;98861.34;;;16.29;26.01
10176;BME280;18221;38.704;0.152;2023-04-02T03:00:00;98861.34;;;16.29;26.21
10176;BME280;18221;38.704;0.152;2023-04-02T03:02:38;98875.19;;;16.33;26.36
10176;BME280;18221;38.704;0.152;2023-04-02T03:05:15;98876.53;;;16.37;26.46
10176;BME280;18221;38.704;0.152;2023-04-02T03:07:45;98882.00;;;16.21;26.72
10176;BME280;18221;38.704;0.152;2023-04-02T03:10:19;98884.66;;;16.43;26.97
10176;BME280;18221;38.704;0.152;2023-04-02T03:12:58;98892.91;;;16.42;26.91
10176;BME280;18221;38.704;0.152;2023-04-02T03:15:37;98911.66;;;16.42;27.60
10176;BME280;18221;38.704;0.152;2023-04-02T03:18:15;98899.66;;;16.60;26.82
10176;BME280;18221;38.704;0.152;2023-04-02T03:20:49;98885.06;;;16.63;26.93
10176;BME280;18221;38.704;0.152;2023-04-02T03:23:26;98888.25;;;16.36;26.54
10176;BME280;18221;38.704;0.152;2023-04-02T03:26:05;98881.41;;;16.56;26.31
10176;BME280;18221;38.704;0.152;2023-04-02T03:28:40;98873.13;;;16.20;26.52
10176;BME280;18221;38.704;0.152;2023-04-02T03:31:16;98868.84;;;16.11;26.06
10176;BME280;18221;38.704;0.152;2023-04-02T03:33:55;98854.97;;;16.08;25.63
10176;BME280;18221;38.704;0.152;2023-04-02T03:36:30;98867.41;;;16.23;25.43
10176;BME280;18221;38.704;0.152;2023-04-02T03:39:10;98872.84;;;16.15;25.04
10176;BME280;18221;38.704;0.152;2023-04-02T03:41:48;98874.81;;;15.90;25.34
10176;BME280;18221;38.704;0.152;2023-04-02T03:44:26;98893.00;;;16.03;24.98
10176;BME280;18221;38.704;0.152;2023-04-02T03:47:04;98905.25;;;15.97;24.82
10176;BME280;18221;38.704;0.152;2023-04-02T03:49:46;98896.97;;;15.84;25.03
10176;BME280;18221;38.704;0.152;2023-04-02T03:52:25;98934.44;;;16.15;24.92
10176;BME280;18221;38.704;0.152;2023-04-02T03:54:58;98932.16;;;16.04;24.51
10176;BME280;18221;38.704;0.152;2023-04-02T03:57:33;98944.44;;;15.90;24.46
10176;BME280;18221;38.704;0.152;2023-04-02T04:00:14;98915.22;;;15.81;24.01
10176;BME280;18221;38.704;0.152;2023-04-02T04:02:51;98912.09;;;15.69;24.30
10176;BME280;18221;38.704;0.152;2023-04-02T04:05:30;98912.41;;;15.74;24.51
10176;BME280;18221;38.704;0.152;2023-04-02T04:08:05;98914.59;;;15.71;24.29
10176;BME280;18221;38.704;0.152;2023-04-02T04:10:36;98907.81;;;15.52;24.79
10176;BME280;18221;38.704;0.152;2023-04-02T04:13:11;98899.13;;;15.50;24.67
10176;BME280;18221;38.704;0.152;2023-04-02T04:15:49;98888.72;;;15.63;24.34
10176;BME280;18221;38.704;0.152;2023-04-02T04:18:31;98888.47;;;15.73;23.97
10176;BME280;18221;38.704;0.152;2023-04-02T04:21:13;98879.00;;;15.62;24.08
10176;BME280;18221;38.704;0.152;2023-04-02T04:23:50;98891.38;;;15.63;23.97
10176;BME280;18221;38.704;0.152;2023-04-02T04:26:25;98903.34;;;15.75;23.76
10176;BME280;18221;38.704;0.152;2023-04-02T04:29:17;98889.63;;;15.78;23.47
10176;BME280;18221;38.704;0.152;2023-04-02T04:31:54;98893.91;;;15.57;22.85
10176;BME280;18221;38.704;0.152;2023-04-02T04:34:39;98897.34;;;15.73;22.09
10176;BME280;18221;38.704;0.152;2023-04-02T04:37:20;98878.25;;;15.76;22.42
10176;BME280;18221;38.704;0.152;2023-04-02T04:39:57;98884.19;;;15.64;22.10
10176;BME280;18221;38.704;0.152;2023-04-02T04:42:32;98893.91;;;15.95;22.06
10176;BME280;18221;38.704;0.152;2023-04-02T04:45:15;98897.13;;;15.83;21.78
10176;BME280;18221;38.704;0.152;2023-04-02T04:47:56;98915.06;;;15.82;21.53
10176;BME280;18221;38.704;0.152;2023-04-02T04:50:33;98939.78;;;15.92;21.39
10176;BME280;18221;38.704;0.152;2023-04-02T04:53:14;98937.09;;;15.92;21.57
10176;BME280;18221;38.704;0.152;2023-04-02T04:55:46;98933.81;;;15.82;21.38
10176;BME280;18221;38.704;0.152;2023-04-02T04:58:22;98935.72;;;15.66;21.62
10176;BME280;18221;38.704;0.152;2023-04-02T05:01:02;98922.72;;;15.85;21.51
10176;BME280;18221;38.704;0.152;2023-04-02T05:03:38;98919.81;;;15.64;21.53
10176;BME280;18221;38.704;0.152;2023-04-02T05:06:18;98954.84;;;15.85;21.16
10176;BME280;18221;38.704;0.152;2023-04-02T05:08:54;98949.94;;;15.97;21.15
10176;BME280;18221;38.704;0.152;2023-04-02T05:11:31;98949.09;;;15.96;20.87
10176;BME280;18221;38.704;0.152;2023-04-02T05:14:06;98942.00;;;16.12;21.36
10176;BME280;18221;38.704;0.152;2023-04-02T05:16:44;98919.66;;;15.96;21.37
10176;BME280;18221;38.704;0.152;2023-04-02T05:19:24;98930.22;;;15.98;21.53
10176;BME280;18221;38.704;0.152;2023-04-02T05:22:01;98928.06;;;15.85;21.30
10176;BME280;18221;38.704;0.152;2023-04-02T05:24:50;98939.28;;;15.89;21.52
10176;BME280;18221;38.704;0.152;2023-04-02T05:27:33;98950.47;;;15.92;21.64
10176;BME280;18221;38.704;0.152;2023-04-02T05:30:27;98929.44;;;15.81;21.60
10176;BME280;18221;38.704;0.152;2023-04-02T05:33:04;98944.50;;;15.82;21.49
10176;BME280;18221;38.704;0.152;2023-04-02T05:35:40;98947.47;;;15.95;21.24
10176;BME280;18221;38.704;0.152;2023-04-02T05:38:21;98929.44;;;15.81;21.96
10176;BME280;18221;38.704;0.152;2023-04-02T05:41:00;98937.44;;;15.89;21.50
10176;BME280;18221;38.704;0.152;2023-04-02T05:43:33;98943.41;;;15.99;21.45
10176;BME280;18221;38.704;0.152;2023-04-02T05:46:14;98938.06;;;15.99;21.48
10176;BME280;18221;38.704;0.152;2023-04-02T05:48:49;98955.38;;;15.81;21.68
10176;BME280;18221;38.704;0.152;2023-04-02T05:51:26;98971.47;;;15.73;21.87
10176;BME280;18221;38.704;0.152;2023-04-02T05:54:00;98974.84;;;16.05;21.53
10176;BME280;18221;38.704;0.152;2023-04-02T05:56:37;98948.81;;;15.91;21.31
10176;BME280;18221;38.704;0.152;2023-04-02T05:59:16;98958.75;;;16.14;21.77
10176;BME280;18221;38.704;0.152;2023-04-02T06:01:51;98952.09;;;16.01;21.67
10176;BME280;18221;38.704;0.152;2023-04-02T06:04:27;98953.81;;;15.94;21.68
10176;BME280;18221;38.704;0.152;2023-04-02T06:07:04;98952.63;;;15.97;21.99
10176;BME280;18221;38.704;0.152;2023-04-02T06:09:41;98955.69;;;15.86;22.04
10176;BME280;18221;38.704;0.152;2023-04-02T06:12:26;98953.72;;;15.80;21.77
10176;BME280;18221;38.704;0.152;2023-04-02T06:14:58;98911.91;;;15.71;22.50
10176;BME280;18221;38.704;0.152;2023-04-02T06:17:27;98946.19;;;15.75;22.46
10176;BME280;18221;38.704;0.152;2023-04-02T06:19:58;98953.84;;;15.86;22.32
10176;BME280;18221;38.704;0.152;2023-04-02T06:22:35;98961.78;;;15.72;22.08
10176;BME280;18221;38.704;0.152;2023-04-02T06:25:13;98974.94;;;15.89;22.37
10176;BME280;18221;38.704;0.152;2023-04-02T06:27:50;98988.84;;;15.85;22.33
10176;BME280;18221;38.704;0.152;2023-04-02T06:30:50;99003.03;;;15.85;22.54
10176;BME280;18221;38.704;0.152;2023-04-02T06:33:34;99002.72;;;15.80;22.49
10176;BME280;18221;38.704;0.152;2023-04-02T06:36:05;99007.72;;;15.91;22.78
10176;BME280;18221;38.704;0.152;2023-04-02T06:38:37;99037.16;;;15.99;22.62
10176;BME280;18221;38.704;0.152;2023-04-02T06:41:18;99028.81;;;16.25;22.30
10176;BME280;18221;38.704;0.152;2023-04-02T06:43:53;99024.22;;;16.11;22.38
10176;BME280;18221;38.704;0.152;2023-04-02T06:46:33;99032.00;;;16.29;22.48
10176;BME280;18221;38.704;0.152;2023-04-02T06:49:14;99047.69;;;16.40;22.11
10176;BME280;18221;38.704;0.152;2023-04-02T06:51:47;99036.91;;;16.48;22.54
10176;BME280;18221;38.704;0.152;2023-04-02T06:54:18;99069.00;;;16.33;22.83
10176;BME280;18221;38.704;0.152;2023-04-02T06:56:48;99060.22;;;16.55;22.47
10176;BME280;18221;38.704;0.152;2023-04-02T06:59:19;99055.97;;;16.61;22.03
10176;BME280;18221;38.704;0.152;2023-04-02T07:01:52;99071.69;;;16.64;22.31
10176;BME280;18221;38.704;0.152;2023-04-02T07:04:23;99079.09;;;16.62;22.39
10176;BME280;18221;38.704;0.152;2023-04-02T07:06:53;99101.22;;;16.48;22.61
10176;BME280;18221;38.704;0.152;2023-04-02T07:09:22;99115.66;;;16.55;22.35
10176;BME280;18221;38.704;0.152;2023-04-02T07:11:52;99121.09;;;17.00;22.22
10176;BME280;18221;38.704;0.152;2023-04-02T07:14:23;99116.31;;;17.10;21.81
10176;BME280;18221;38.704;0.152;2023-04-02T07:16:52;99099.72;;;17.15;22.01
10176;BME280;18221;38.704;0.152;2023-04-02T07:19:22;99148.00;;;17.38;21.69
10176;BME280;18221;38.704;0.152;2023-04-02T07:21:50;99137.81;;;17.56;21.54
10176;BME280;18221;38.704;0.152;2023-04-02T07:24:19;99147.38;;;17.73;21.36
10176;BME280;18221;38.704;0.152;2023-04-02T07:26:48;99141.41;;;17.85;21.30
10176;BME280;18221;38.704;0.152;2023-04-02T07:29:17;99131.03;;;17.82;21.44
10176;BME280;18221;38.704;0.152;2023-04-02T07:31:47;99157.59;;;17.77;21.26
10176;BME280;18221;38.704;0.152;2023-04-02T07:34:18;99146.88;;;17.55;21.72
10176;BME280;18221;38.704;0.152;2023-04-02T07:36:47;99154.28;;;17.53;21.69
10176;BME280;18221;38.704;0.152;2023-04-02T07:39:16;99162.97;;;17.55;21.52
10176;BME280;18221;38.704;0.152;2023-04-02T07:41:52;99165.34;;;17.50;21.49
10176;BME280;18221;38.704;0.152;2023-04-02T07:44:22;99152.88;;;17.34;21.89
10176;BME280;18221;38.704;0.152;2023-04-02T07:46:53;99172.75;;;17.25;21.79
10176;BME280;18221;38.704;0.152;2023-04-02T07:49:22;99159.78;;;17.28;21.96
10176;BME280;18221;38.704;0.152;2023-04-02T07:51:52;99164.41;;;17.43;21.84
10176;BME280;18221;38.704;0.152;2023-04-02T07:54:21;99160.50;;;17.53;22.01
10176;BME280;18221;38.704;0.152;2023-04-02T07:56:49;99162.28;;;17.61;22.21
10176;BME280;18221;38.704;0.152;2023-04-02T07:59:18;99182.31;;;17.73;22.01
10176;BME280;18221;38.704;0.152;2023-04-02T08:01:47;99182.47;;;17.57;21.82
10176;BME280;18221;38.704;0.152;2023-04-02T08:04:20;99183.97;;;17.74;22.10
10176;BME280;18221;38.704;0.152;2023-04-02T08:06:49;99174.66;;;17.84;21.77
10176;BME280;18221;38.704;0.152;2023-04-02T08:09:18;99181.38;;;17.66;21.86
10176;BME280;18221;38.704;0.152;2023-04-02T08:11:47;99153.41;;;17.52;21.80
10176;BME280;18221;38.704;0.152;2023-04-02T08:14:15;99177.19;;;17.63;22.04
10176;BME280;18221;38.704;0.152;2023-04-02T08:16:50;99180.28;;;17.75;21.88
10176;BME280;18221;38.704;0.152;2023-04-02T08:19:20;99180.13;;;17.91;21.93
10176;BME280;18221;38.704;0.152;2023-04-02T08:21:50;99197.97;;;18.07;22.11
10176;BME280;18221;38.704;0.152;2023-04-02T08:24:20;99192.38;;;17.94;22.20
10176;BME280;18221;38.704;0.152;2023-04-02T08:26:49;99203.84;;;18.25;22.04
10176;BME280;18221;38.704;0.152;2023-04-02T08:29:19;99206.41;;;18.04;22.16
10176;BME280;18221;38.704;0.152;2023-04-02T08:31:48;99212.34;;;18.28;21.83
10176;BME280;18221;38.704;0.152;2023-04-02T08:34:17;99211.06;;;18.24;22.06
10176;BME280;18221;38.704;0.152;2023-04-02T08:36:47;99204.56;;;18.33;21.75
10176;BME280;18221;38.704;0.152;2023-04-02T08:39:16;99203.84;;;18.39;21.91
10176;BME280;18221;38.704;0.152;2023-04-02T08:42:01;99213.47;;;18.34;21.47
10176;BME280;18221;38.704;0.152;2023-04-02T08:44:46;99212.53;;;18.41;21.66
10176;BME280;18221;38.704;0.152;2023-04-02T08:47:18;99205.69;;;18.24;21.29
10176;BME280;18221;38.704;0.152;2023-04-02T08:49:57;99203.78;;;18.47;21.53
10176;BME280;18221;38.704;0.152;2023-04-02T08:52:31;99195.91;;;18.61;21.59
10176;BME280;18221;38.704;0.152;2023-04-02T08:55:08;99205.06;;;18.52;21.68
10176;BME280;18221;38.704;0.152;2023-04-02T08:57:50;99207.50;;;18.61;21.44
10176;BME280;18221;38.704;0.152;2023-04-02T09:00:32;99194.78;;;18.55;21.62
10176;BME280;18221;38.704;0.152;2023-04-02T09:03:09;99195.78;;;18.54;21.37
10176;BME280;18221;38.704;0.152;2023-04-02T09:05:42;99192.00;;;18.63;21.46
10176;BME280;18221;38.704;0.152;2023-04-02T09:08:19;99213.31;;;18.65;21.63
10176;BME280;18221;38.704;0.152;2023-04-02T09:10:56;99191.75;;;18.35;21.44
10176;BME280;18221;38.704;0.152;2023-04-02T09:13:30;99193.56;;;18.58;21.32
10176;BME280;18221;38.704;0.152;2023-04-02T09:16:08;99198.59;;;18.61;21.51
10176;BME280;18221;38.704;0.152;2023-04-02T09:18:38;99184.78;;;18.64;21.04
10176;BME280;18221;38.704;0.152;2023-04-02T09:21:31;99194.00;;;18.46;21.02
10176;BME280;18221;38.704;0.152;2023-04-02T09:24:02;99189.28;;;18.78;21.55
10176;BME280;18221;38.704;0.152;2023-04-02T09:26:33;99196.84;;;19.03;21.09
10176;BME280;18221;38.704;0.152;2023-04-02T09:32:45;99197.66;;;18.68;20.48
10176;BME280;18221;38.704;0.152;2023-04-02T09:35:18;99216.28;;;18.84;20.87
10176;BME280;18221;38.704;0.152;2023-04-02T09:37:47;99203.09;;;18.89;20.66
10176;BME280;18221;38.704;0.152;2023-04-02T09:40:46;99196.78;;;18.97;20.64
10176;BME280;18221;38.704;0.152;2023-04-02T09:43:19;99202.09;;;19.26;20.75
10176;BME280;18221;38.704;0.152;2023-04-02T09:46:00;99187.00;;;19.46;20.40
10176;BME280;18221;38.704;0.152;2023-04-02T09:48:32;99202.81;;;19.70;20.04
10176;BME280;18221;38.704;0.152;2023-04-02T09:51:24;99183.47;;;19.46;20.20
10176;BME280;18221;38.704;0.152;2023-04-02T09:54:10;99187.72;;;19.19;19.95
10176;BME280;18221;38.704;0.152;2023-04-02T09:56:59;99198.25;;;19.35;20.56
10176;BME280;18221;38.704;0.152;2023-04-02T09:59:28;99192.94;;;19.21;20.57
10176;BME280;18221;38.704;0.152;2023-04-02T10:02:02;99198.41;;;19.48;20.75
10176;BME280;18221;38.704;0.152;2023-04-02T10:04:38;99204.16;;;19.81;20.53
10176;BME280;18221;38.704;0.152;2023-04-02T10:07:32;99216.91;;;19.94;20.56
10176;BME280;18221;38.704;0.152;2023-04-02T10:10:17;99219.72;;;19.86;20.16
10176;BME280;18221;38.704;0.152;2023-04-02T10:12:54;99221.34;;;20.08;20.22
10176;BME280;18221;38.704;0.152;2023-04-02T10:15:34;99228.81;;;20.06;20.20
10176;BME280;18221;38.704;0.152;2023-04-02T10:18:13;99225.72;;;20.30;19.85
10176;BME280;18221;38.704;0.152;2023-04-02T10:20:45;99220.25;;;20.23;19.87
10176;BME280;18221;38.704;0.152;2023-04-02T10:23:17;99220.56;;;20.35;19.65
10176;BME280;18221;38.704;0.152;2023-04-02T10:25:53;99225.28;;;20.54;20.10
10176;BME280;18221;38.704;0.152;2023-04-02T10:28:48;99225.59;;;20.79;20.12
10176;BME280;18221;38.704;0.152;2023-04-02T10:31:24;99216.34;;;20.60;19.77
10176;BME280;18221;38.704;0.152;2023-04-02T10:34:02;99208.09;;;20.62;19.92
10176;BME280;18221;38.704;0.152;2023-04-02T10:36:48;99233.03;;;20.15;19.30
10176;BME280;18221;38.704;0.152;2023-04-02T10:39:22;99228.28;;;20.17;18.84
10176;BME280;18221;38.704;0.152;2023-04-02T10:41:59;99224.63;;;20.24;19.03
10176;BME280;18221;38.704;0.152;2023-04-02T10:44:51;99215.56;;;20.66;19.23
10176;BME280;18221;38.704;0.152;2023-04-02T10:47:34;99209.47;;;20.85;19.38
10176;BME280;18221;38.704;0.152;2023-04-02T10:50:26;99204.47;;;20.82;19.42
10176;BME280;18221;38.704;0.152;2023-04-02T10:53:07;99202.31;;;20.71;18.85
10176;BME280;18221;38.704;0.152;2023-04-02T10:55:44;99196.81;;;20.52;19.69
10176;BME280;18221;38.704;0.152;2023-04-02T10:58:23;99190.38;;;20.93;19.82
10176;BME280;18221;38.704;0.152;2023-04-02T11:01:00;99191.56;;;21.19;19.06
10176;BME280;18221;38.704;0.152;2023-04-02T11:03:39;99183.66;;;21.24;18.55
10176;BME280;18221;38.704;0.152;2023-04-02T11:06:19;99181.19;;;21.29;18.90
10176;BME280;18221;38.704;0.152;2023-04-02T11:08:52;99168.72;;;21.28;18.74
10176;BME280;18221;38.704;0.152;2023-04-02T11:11:25;99181.03;;;21.50;18.92
10176;BME280;18221;38.704;0.152;2023-04-02T11:13:59;99184.91;;;21.21;19.11
10176;BME280;18221;38.704;0.152;2023-04-02T11:16:30;99185.13;;;21.33;18.71
10176;BME280;18221;38.704;0.152;2023-04-02T11:19:23;99173.13;;;21.75;18.66
10176;BME280;18221;38.704;0.152;2023-04-02T11:21:54;99175.66;;;21.76;18.32
10176;BME280;18221;38.704;0.152;2023-04-02T11:24:38;99164.88;;;21.89;19.16
10176;BME280;18221;38.704;0.152;2023-04-02T11:27:27;99161.75;;;22.19;18.87
10176;BME280;18221;38.704;0.152;2023-04-02T11:30:06;99160.69;;;22.06;18.93
10176;BME280;18221;38.704;0.152;2023-04-02T11:32:42;99159.84;;;22.26;18.48
10176;BME280;18221;38.704;0.152;2023-04-02T11:35:37;99155.72;;;22.10;18.69
10176;BME280;18221;38.704;0.152;2023-04-02T11:38:47;99166.13;;;21.93;18.88
10176;BME280;18221;38.704;0.152;2023-04-02T11:42:03;99165.69;;;22.09;18.89
10176;BME280;18221;38.704;0.152;2023-04-02T11:44:32;99158.97;;;22.45;19.28
10176;BME280;18221;38.704;0.152;2023-04-02T11:47:21;99159.41;;;22.35;18.64
10176;BME280;18221;38.704;0.152;2023-04-02T11:50:03;99153.75;;;22.63;18.41
10176;BME280;18221;38.704;0.152;2023-04-02T11:52:49;99150.38;;;22.74;17.41
10176;BME280;18221;38.704;0.152;2023-04-02T11:55:26;99149.75;;;22.79;17.75
10176;BME280;18221;38.704;0.152;2023-04-02T11:58:44;99152.38;;;22.92;17.40
10176;BME280;18221;38.704;0.152;2023-04-02T12:01:57;99143.75;;;23.08;17.67
10176;BME280;18221;38.704;0.152;2023-04-02T12:08:00;99139.31;;;22.82;17.62
10176;BME280;18221;38.704;0.152;2023-04-02T12:10:53;99147.41;;;22.89;17.40
10176;BME280;18221;38.704;0.152;2023-04-02T12:13:50;99145.44;;;23.02;16.77
10176;BME280;18221;38.704;0.152;2023-04-02T12:16:21;99147.59;;;23.38;17.02
10176;BME280;18221;38.704;0.152;2023-04-02T12:18:57;99157.28;;;23.52;18.12
10176;BME280;18221;38.704;0.152;2023-04-02T12:21:28;99152.53;;;23.48;20.21
10176;BME280;18221;38.704;0.152;2023-04-02T12:24:00;99150.38;;;23.18;19.40
10176;BME280;18221;38.704;0.152;2023-04-02T12:26:34;99149.34;;;23.13;19.15
10176;BME280;18221;38.704;0.152;2023-04-02T12:29:23;99136.63;;;23.20;18.93
10176;BME280;18221;38.704;0.152;2023-04-02T12:31:54;99146.09;;;23.04;19.03
10176;BME280;18221;38.704;0.152;2023-04-02T12:34:25;99142.13;;;23.07;18.66
10176;BME280;18221;38.704;0.152;2023-04-02T12:36:57;99126.03;;;23.12;19.24
10176;BME280;18221;38.704;0.152;2023-04-02T12:39:31;99134.09;;;23.25;19.63
10176;BME280;18221;38.704;0.152;2023-04-02T12:42:00;99138.53;;;23.51;20.10
10176;BME280;18221;38.704;0.152;2023-04-02T12:44:30;99147.56;;;23.69;19.29
10176;BME280;18221;38.704;0.152;2023-04-02T12:47:00;99144.22;;;23.36;22.73
10176;BME280;18221;38.704;0.152;2023-04-02T12:49:39;99133.94;;;23.13;19.28
10176;BME280;18221;38.704;0.152;2023-04-02T12:52:12;99135.44;;;23.09;21.20
10176;BME280;18221;38.704;0.152;2023-04-02T12:54:46;99133.50;;;23.16;22.58
10176;BME280;18221;38.704;0.152;2023-04-02T12:57:39;99132.47;;;23.17;19.57
10176;BME280;18221;38.704;0.152;2023-04-02T13:00:33;99130.78;;;23.23;20.09
10176;BME280;18221;38.704;0.152;2023-04-02T13:03:19;99135.56;;;23.21;17.58
10176;BME280;18221;38.704;0.152;2023-04-02T13:05:54;99121.16;;;23.27;19.12
10176;BME280;18221;38.704;0.152;2023-04-02T13:08:27;99122.97;;;23.40;19.73
10176;BME280;18221;38.704;0.152;2023-04-02T13:10:58;99115.44;;;23.42;19.97
10176;BME280;18221;38.704;0.152;2023-04-02T13:13:32;99109.66;;;23.31;18.76
10176;BME280;18221;38.704;0.152;2023-04-02T13:16:21;99120.28;;;23.33;22.40
10176;BME280;18221;38.704;0.152;2023-04-02T13:19:09;99127.28;;;23.47;24.95
10176;BME280;18221;38.704;0.152;2023-04-02T13:21:38;99119.09;;;23.22;24.62
10176;BME280;18221;38.704;0.152;2023-04-02T13:24:18;99118.63;;;23.32;24.93
10176;BME280;18221;38.704;0.152;2023-04-02T13:26:47;99119.94;;;23.23;23.90
10176;BME280;18221;38.704;0.152;2023-04-02T13:29:23;99116.13;;;23.30;24.71
10176;BME280;18221;38.704;0.152;2023-04-02T13:31:56;99109.41;;;23.40;22.77
10176;BME280;18221;38.704;0.152;2023-04-02T13:34:26;99111.47;;;23.44;22.39
10176;BME280;18221;38.704;0.152;2023-04-02T13:36:56;99106.69;;;23.46;23.31
10176;BME280;18221;38.704;0.152;2023-04-02T13:39:25;99106.94;;;23.63;24.16
10176;BME280;18221;38.704;0.152;2023-04-02T13:41:58;99102.00;;;23.78;20.70
10176;BME280;18221;38.704;0.152;2023-04-02T13:44:30;99091.78;;;23.55;20.22
10176;BME280;18221;38.704;0.152;2023-04-02T13:47:01;99086.69;;;23.65;23.43
10176;BME280;18221;38.704;0.152;2023-04-02T13:49:30;99092.31;;;23.39;22.03
10176;BME280;18221;38.704;0.152;2023-04-02T13:52:01;99090.34;;;23.53;24.25
10176;BME280;18221;38.704;0.152;2023-04-02T13:54:35;99082.19;;;23.59;25.35
10176;BME280;18221;38.704;0.152;2023-04-02T13:57:08;99079.00;;;23.38;23.72
10176;BME280;18221;38.704;0.152;2023-04-02T13:59:41;99070.72;;;23.57;24.62
10176;BME280;18221;38.704;0.152;2023-04-02T14:02:31;99069.47;;;23.78;23.75
10176;BME280;18221;38.704;0.152;2023-04-02T14:05:15;99079.13;;;23.74;23.22
10176;BME280;18221;38.704;0.152;2023-04-02T14:08:06;99063.25;;;23.77;22.65